DAL1542 KLAX-KSAN
Flight info
| Callsign | DAL1542 |
|---|---|
| Flight time | N/A |
| Altitude | 13000 |
| Route | LAXX1 MZB |
| Aircraft | B739/M-SDE2E3FGHIRWXY/LB1 |
Departure
| Time | 2026-05-08 00:21 |
|---|---|
| Airport | Los Angeles International Airport (KLAX) |
Arrival
| Time | N/A |
|---|---|
| Airport | San Diego International Airport (KSAN) |
| Time | Latitude | Longitude | Altitude | Speed | Heading |
|---|---|---|---|---|---|
| 2026-05-07 23:44 | 33.94723 | -118.40189 | 92 ft | 0 kts | 84° |
| 2026-05-08 00:04 | 33.94723 | -118.40190 | 92 ft | 1 kts | 84° |
| 2026-05-08 00:04 | 33.94720 | -118.40219 | 92 ft | 3 kts | 84° |
| 2026-05-08 00:04 | 33.94717 | -118.40243 | 93 ft | 4 kts | 48° |
| 2026-05-08 00:05 | 33.94697 | -118.40252 | 91 ft | 3 kts | 353° |
| 2026-05-08 00:05 | 33.94673 | -118.40249 | 91 ft | 1 kts | 353° |
| 2026-05-08 00:15 | 33.94697 | -118.40253 | 93 ft | 6 kts | 353° |
| 2026-05-08 00:15 | 33.94747 | -118.40260 | 93 ft | 9 kts | 352° |
| 2026-05-08 00:16 | 33.94789 | -118.40264 | 94 ft | 1 kts | 1° |
| 2026-05-08 00:16 | 33.94795 | -118.40264 | 92 ft | 1 kts | 1° |
| 2026-05-08 00:16 | 33.94814 | -118.40272 | 92 ft | 6 kts | 340° |
| 2026-05-08 00:16 | 33.94859 | -118.40281 | 93 ft | 7 kts | 11° |
| 2026-05-08 00:17 | 33.94890 | -118.40244 | 93 ft | 6 kts | 62° |
| 2026-05-08 00:17 | 33.94903 | -118.40193 | 96 ft | 6 kts | 78° |
| 2026-05-08 00:17 | 33.94910 | -118.40141 | 93 ft | 6 kts | 81° |
| 2026-05-08 00:17 | 33.94918 | -118.40090 | 92 ft | 6 kts | 68° |
| 2026-05-08 00:18 | 33.94953 | -118.40065 | 94 ft | 6 kts | 4° |
| 2026-05-08 00:18 | 33.94995 | -118.40066 | 93 ft | 6 kts | 345° |
| 2026-05-08 00:18 | 33.95024 | -118.40098 | 94 ft | 6 kts | 282° |
| 2026-05-08 00:18 | 33.95023 | -118.40115 | 97 ft | 0 kts | 266° |
| 2026-05-08 00:20 | 33.95023 | -118.40117 | 97 ft | 2 kts | 266° |
| 2026-05-08 00:20 | 33.95018 | -118.40189 | 98 ft | 33 kts | 264° |
| 2026-05-08 00:20 | 33.94954 | -118.40805 | 98 ft | 112 kts | 263° |
| 2026-05-08 00:21 | 33.94828 | -118.42002 | 126 ft | 170 kts | 261° |
| 2026-05-08 00:21 | 33.94666 | -118.43391 | 1016 ft | 164 kts | 260° |
| 2026-05-08 00:21 | 33.94476 | -118.44772 | 1954 ft | 164 kts | 259° |
| 2026-05-08 00:21 | 33.94303 | -118.46261 | 2253 ft | 197 kts | 265° |
| 2026-05-08 00:22 | 33.94224 | -118.47973 | 2596 ft | 210 kts | 264° |
| 2026-05-08 00:22 | 33.93995 | -118.49757 | 2969 ft | 224 kts | 263° |
| 2026-05-08 00:22 | 33.93777 | -118.51666 | 3274 ft | 242 kts | 263° |
| 2026-05-08 00:22 | 33.93576 | -118.53775 | 3540 ft | 264 kts | 264° |
| 2026-05-08 00:23 | 33.93344 | -118.55976 | 4319 ft | 264 kts | 264° |
| 2026-05-08 00:23 | 33.93117 | -118.58170 | 5164 ft | 264 kts | 265° |
| 2026-05-08 00:23 | 33.93011 | -118.59642 | 5609 ft | 269 kts | 266° |
| 2026-05-08 00:23 | 33.92800 | -118.61904 | 6301 ft | 274 kts | 262° |
| 2026-05-08 00:24 | 33.92136 | -118.64121 | 6731 ft | 291 kts | 245° |
| 2026-05-08 00:24 | 33.91052 | -118.66172 | 7529 ft | 290 kts | 227° |
| 2026-05-08 00:24 | 33.88679 | -118.67629 | 8502 ft | 300 kts | 188° |
| 2026-05-08 00:24 | 33.86582 | -118.67787 | 9180 ft | 306 kts | 182° |
| 2026-05-08 00:25 | 33.85137 | -118.67825 | 9637 ft | 308 kts | 180° |
| 2026-05-08 00:25 | 33.83019 | -118.67698 | 10523 ft | 301 kts | 171° |
| 2026-05-08 00:25 | 33.80957 | -118.67291 | 11204 ft | 306 kts | 175° |
| 2026-05-08 00:25 | 33.78752 | -118.67250 | 11373 ft | 328 kts | 180° |
| 2026-05-08 00:26 | 33.76399 | -118.67325 | 11543 ft | 348 kts | 181° |
| 2026-05-08 00:26 | 33.73906 | -118.67424 | 11693 ft | 368 kts | 181° |
| 2026-05-08 00:26 | 33.71285 | -118.67535 | 11829 ft | 386 kts | 181° |
| 2026-05-08 00:26 | 33.68551 | -118.67655 | 12037 ft | 399 kts | 181° |
| 2026-05-08 00:27 | 33.65751 | -118.67790 | 12473 ft | 404 kts | 181° |
| 2026-05-08 00:27 | 33.62938 | -118.67934 | 12976 ft | 405 kts | 181° |
| 2026-05-08 00:27 | 33.60116 | -118.67818 | 12978 ft | 410 kts | 166° |
| 2026-05-08 00:27 | 33.57490 | -118.66516 | 13017 ft | 412 kts | 143° |
| 2026-05-08 00:28 | 33.55431 | -118.64162 | 13027 ft | 410 kts | 127° |
| 2026-05-08 00:28 | 33.53778 | -118.61439 | 13016 ft | 409 kts | 123° |
| 2026-05-08 00:28 | 33.52177 | -118.58573 | 13014 ft | 409 kts | 122° |
| 2026-05-08 00:28 | 33.50617 | -118.55722 | 13010 ft | 409 kts | 122° |
| 2026-05-08 00:29 | 33.49067 | -118.52870 | 13021 ft | 408 kts | 121° |
| 2026-05-08 00:29 | 33.47522 | -118.50018 | 13026 ft | 408 kts | 121° |
| 2026-05-08 00:29 | 33.45980 | -118.47170 | 13024 ft | 407 kts | 121° |
| 2026-05-08 00:29 | 33.44439 | -118.44331 | 13024 ft | 406 kts | 121° |
| 2026-05-08 00:30 | 33.42919 | -118.41540 | 13024 ft | 406 kts | 121° |
| 2026-05-08 00:30 | 33.41358 | -118.38677 | 13028 ft | 405 kts | 121° |
| 2026-05-08 00:30 | 33.39840 | -118.35890 | 13035 ft | 405 kts | 121° |
| 2026-05-08 00:30 | 33.38303 | -118.33062 | 13027 ft | 406 kts | 121° |
| 2026-05-08 00:31 | 33.36769 | -118.30232 | 13029 ft | 406 kts | 121° |
| 2026-05-08 00:31 | 33.35237 | -118.27400 | 13028 ft | 406 kts | 121° |
| 2026-05-08 00:31 | 33.33704 | -118.24565 | 13020 ft | 406 kts | 121° |
| 2026-05-08 00:31 | 33.32171 | -118.21729 | 13021 ft | 406 kts | 121° |
| 2026-05-08 00:32 | 33.30638 | -118.18897 | 13018 ft | 406 kts | 121° |
| 2026-05-08 00:32 | 33.29103 | -118.16067 | 13016 ft | 406 kts | 121° |
| 2026-05-08 00:32 | 33.27567 | -118.13234 | 13014 ft | 406 kts | 121° |
| 2026-05-08 00:32 | 33.26034 | -118.10407 | 13004 ft | 406 kts | 121° |
| 2026-05-08 00:33 | 33.24498 | -118.07576 | 13006 ft | 406 kts | 121° |
| 2026-05-08 00:33 | 33.22961 | -118.04747 | 13008 ft | 406 kts | 121° |
| 2026-05-08 00:33 | 33.21421 | -118.01920 | 13004 ft | 406 kts | 121° |
| 2026-05-08 00:33 | 33.19877 | -117.99098 | 13008 ft | 406 kts | 121° |
| 2026-05-08 00:34 | 33.18333 | -117.96277 | 13010 ft | 406 kts | 121° |
| 2026-05-08 00:34 | 33.16786 | -117.93453 | 13010 ft | 406 kts | 121° |
| 2026-05-08 00:34 | 33.15238 | -117.90632 | 13002 ft | 406 kts | 121° |
| 2026-05-08 00:34 | 33.13690 | -117.87813 | 13010 ft | 406 kts | 121° |
| 2026-05-08 00:35 | 33.12140 | -117.84994 | 13007 ft | 406 kts | 121° |
| 2026-05-08 00:35 | 33.10591 | -117.82176 | 13011 ft | 406 kts | 121° |
| 2026-05-08 00:35 | 33.09043 | -117.79362 | 13008 ft | 406 kts | 121° |
| 2026-05-08 00:35 | 33.07493 | -117.76542 | 13009 ft | 406 kts | 121° |
| 2026-05-08 00:36 | 33.05946 | -117.73726 | 13013 ft | 406 kts | 121° |
| 2026-05-08 00:36 | 33.04396 | -117.70906 | 12846 ft | 407 kts | 121° |
| 2026-05-08 00:36 | 33.02852 | -117.68093 | 12583 ft | 404 kts | 121° |
| 2026-05-08 00:36 | 33.01320 | -117.65303 | 12332 ft | 402 kts | 121° |
| 2026-05-08 00:37 | 32.99793 | -117.62516 | 12081 ft | 402 kts | 121° |
| 2026-05-08 00:37 | 32.98272 | -117.59723 | 11846 ft | 402 kts | 121° |
| 2026-05-08 00:37 | 32.96887 | -117.56840 | 11600 ft | 401 kts | 114° |
| 2026-05-08 00:38 | 32.94689 | -117.50817 | 11113 ft | 387 kts | 111° |
| 2026-05-08 00:38 | 32.93668 | -117.47916 | 10867 ft | 374 kts | 111° |
| 2026-05-08 00:38 | 32.92659 | -117.45115 | 10619 ft | 362 kts | 112° |
| 2026-05-08 00:38 | 32.91658 | -117.42405 | 10378 ft | 352 kts | 112° |
| 2026-05-08 00:39 | 32.90674 | -117.39782 | 10137 ft | 343 kts | 112° |
| 2026-05-08 00:39 | 32.89707 | -117.37232 | 9895 ft | 334 kts | 112° |
| 2026-05-08 00:39 | 32.88758 | -117.34743 | 9626 ft | 327 kts | 113° |
| 2026-05-08 00:39 | 32.87829 | -117.32314 | 9355 ft | 320 kts | 113° |
| 2026-05-08 00:40 | 32.86912 | -117.29917 | 9018 ft | 316 kts | 113° |
| 2026-05-08 00:40 | 32.86004 | -117.27546 | 8638 ft | 314 kts | 113° |
| 2026-05-08 00:40 | 32.85100 | -117.25188 | 8276 ft | 312 kts | 113° |
| 2026-05-08 00:40 | 32.84201 | -117.22846 | 7914 ft | 311 kts | 113° |
| 2026-05-08 00:41 | 32.83303 | -117.20508 | 7551 ft | 310 kts | 114° |
| 2026-05-08 00:41 | 32.82409 | -117.18182 | 7165 ft | 309 kts | 114° |
| 2026-05-08 00:41 | 32.81516 | -117.15860 | 6802 ft | 309 kts | 114° |
| 2026-05-08 00:41 | 32.80628 | -117.13551 | 6546 ft | 301 kts | 114° |
| 2026-05-08 00:42 | 32.79779 | -117.11349 | 6387 ft | 286 kts | 114° |
| 2026-05-08 00:42 | 32.78970 | -117.09254 | 6244 ft | 271 kts | 114° |
| 2026-05-08 00:42 | 32.78202 | -117.07266 | 6051 ft | 260 kts | 113° |
| 2026-05-08 00:42 | 32.77539 | -117.05325 | 5905 ft | 245 kts | 105° |
| 2026-05-08 00:43 | 32.77099 | -117.03474 | 5889 ft | 228 kts | 103° |
| 2026-05-08 00:43 | 32.76687 | -117.01683 | 5884 ft | 223 kts | 103° |
| 2026-05-08 00:43 | 32.76269 | -116.99904 | 5912 ft | 225 kts | 104° |
| 2026-05-08 00:43 | 32.75829 | -116.98104 | 5892 ft | 228 kts | 108° |
| 2026-05-08 00:44 | 32.75015 | -116.96516 | 5870 ft | 226 kts | 139° |
| 2026-05-08 00:44 | 32.73694 | -116.95588 | 5890 ft | 219 kts | 166° |
| 2026-05-08 00:44 | 32.72235 | -116.95450 | 5820 ft | 207 kts | 196° |
| 2026-05-08 00:44 | 32.70969 | -116.96212 | 5333 ft | 211 kts | 231° |
| 2026-05-08 00:45 | 32.70377 | -116.97788 | 5038 ft | 209 kts | 275° |
| 2026-05-08 00:45 | 32.70945 | -116.99194 | 5201 ft | 188 kts | 326° |
| 2026-05-08 00:45 | 32.72246 | -116.99471 | 4931 ft | 202 kts | 1° |
| 2026-05-08 00:45 | 32.73570 | -116.99317 | 5300 ft | 173 kts | 3° |
| 2026-05-08 00:46 | 32.74669 | -116.99107 | 5643 ft | 155 kts | 6° |